sensor_id;sensor_type;location;lat;lon;timestamp;P1;durP1;ratioP1;P2;durP2;ratioP2
51358;SDS011;37448;51.588;7.248;2022-12-20T00:01:41;6.95;;;2.13;;
51358;SDS011;37448;51.588;7.248;2022-12-20T00:03:42;9.10;;;2.38;;
51358;SDS011;37448;51.588;7.248;2022-12-20T00:05:43;9.50;;;2.30;;
51358;SDS011;37448;51.588;7.248;2022-12-20T00:07:44;6.50;;;2.20;;
51358;SDS011;37448;51.588;7.248;2022-12-20T00:09:44;6.82;;;2.15;;
51358;SDS011;37448;51.588;7.248;2022-12-20T00:11:44;4.35;;;2.13;;
51358;SDS011;37448;51.588;7.248;2022-12-20T00:13:45;5.70;;;2.00;;
51358;SDS011;37448;51.588;7.248;2022-12-20T00:15:46;11.00;;;3.05;;
51358;SDS011;37448;51.588;7.248;2022-12-20T00:17:46;6.03;;;2.10;;
51358;SDS011;37448;51.588;7.248;2022-12-20T00:19:46;4.70;;;2.20;;
51358;SDS011;37448;51.588;7.248;2022-12-20T00:21:47;6.10;;;2.47;;
51358;SDS011;37448;51.588;7.248;2022-12-20T00:23:47;4.88;;;2.28;;
51358;SDS011;37448;51.588;7.248;2022-12-20T00:25:48;5.18;;;1.90;;
51358;SDS011;37448;51.588;7.248;2022-12-20T00:27:48;4.53;;;1.98;;
51358;SDS011;37448;51.588;7.248;2022-12-20T00:29:49;4.20;;;1.83;;
51358;SDS011;37448;51.588;7.248;2022-12-20T00:31:50;4.85;;;2.17;;
51358;SDS011;37448;51.588;7.248;2022-12-20T00:33:51;8.48;;;1.80;;
51358;SDS011;37448;51.588;7.248;2022-12-20T00:35:54;3.58;;;1.52;;
51358;SDS011;37448;51.588;7.248;2022-12-20T00:37:55;4.45;;;1.75;;
51358;SDS011;37448;51.588;7.248;2022-12-20T00:39:55;5.50;;;2.20;;
51358;SDS011;37448;51.588;7.248;2022-12-20T00:41:56;5.35;;;1.98;;
51358;SDS011;37448;51.588;7.248;2022-12-20T00:43:56;5.30;;;2.17;;
51358;SDS011;37448;51.588;7.248;2022-12-20T00:45:57;4.43;;;1.70;;
51358;SDS011;37448;51.588;7.248;2022-12-20T00:47:57;4.15;;;1.85;;
51358;SDS011;37448;51.588;7.248;2022-12-20T00:49:58;5.95;;;2.13;;
51358;SDS011;37448;51.588;7.248;2022-12-20T00:51:58;6.95;;;1.80;;
51358;SDS011;37448;51.588;7.248;2022-12-20T00:53:58;7.88;;;2.30;;
51358;SDS011;37448;51.588;7.248;2022-12-20T00:55:59;4.70;;;1.90;;
51358;SDS011;37448;51.588;7.248;2022-12-20T00:57:59;3.92;;;1.67;;
51358;SDS011;37448;51.588;7.248;2022-12-20T01:00:00;4.70;;;1.95;;
51358;SDS011;37448;51.588;7.248;2022-12-20T01:02:01;3.47;;;1.70;;
51358;SDS011;37448;51.588;7.248;2022-12-20T01:04:02;4.20;;;1.60;;
51358;SDS011;37448;51.588;7.248;2022-12-20T01:06:02;3.80;;;1.95;;
51358;SDS011;37448;51.588;7.248;2022-12-20T01:08:02;7.30;;;3.05;;
51358;SDS011;37448;51.588;7.248;2022-12-20T01:10:03;4.03;;;1.67;;
51358;SDS011;37448;51.588;7.248;2022-12-20T01:12:04;4.50;;;1.98;;
51358;SDS011;37448;51.588;7.248;2022-12-20T01:14:06;5.05;;;2.08;;
51358;SDS011;37448;51.588;7.248;2022-12-20T01:16:14;4.43;;;1.90;;
51358;SDS011;37448;51.588;7.248;2022-12-20T01:18:17;5.40;;;1.77;;
51358;SDS011;37448;51.588;7.248;2022-12-20T01:20:17;3.30;;;1.67;;
51358;SDS011;37448;51.588;7.248;2022-12-20T01:22:18;4.60;;;1.90;;
51358;SDS011;37448;51.588;7.248;2022-12-20T01:24:18;6.28;;;2.08;;
51358;SDS011;37448;51.588;7.248;2022-12-20T01:26:20;3.53;;;1.60;;
51358;SDS011;37448;51.588;7.248;2022-12-20T01:28:22;4.03;;;1.88;;
51358;SDS011;37448;51.588;7.248;2022-12-20T01:30:22;5.32;;;1.92;;
51358;SDS011;37448;51.588;7.248;2022-12-20T01:32:23;4.07;;;1.80;;
51358;SDS011;37448;51.588;7.248;2022-12-20T01:34:24;4.20;;;1.60;;
51358;SDS011;37448;51.588;7.248;2022-12-20T01:36:28;5.65;;;1.70;;
51358;SDS011;37448;51.588;7.248;2022-12-20T01:38:30;5.57;;;1.90;;
51358;SDS011;37448;51.588;7.248;2022-12-20T01:40:31;5.30;;;2.00;;
51358;SDS011;37448;51.588;7.248;2022-12-20T01:42:32;4.63;;;1.80;;
51358;SDS011;37448;51.588;7.248;2022-12-20T01:46:42;3.97;;;1.67;;
51358;SDS011;37448;51.588;7.248;2022-12-20T01:48:46;3.95;;;1.70;;
51358;SDS011;37448;51.588;7.248;2022-12-20T01:51:00;4.38;;;1.70;;
51358;SDS011;37448;51.588;7.248;2022-12-20T01:53:01;4.70;;;1.90;;
51358;SDS011;37448;51.588;7.248;2022-12-20T01:55:08;5.13;;;1.90;;
51358;SDS011;37448;51.588;7.248;2022-12-20T01:57:18;4.25;;;1.48;;
51358;SDS011;37448;51.588;7.248;2022-12-20T01:59:21;5.05;;;1.60;;
51358;SDS011;37448;51.588;7.248;2022-12-20T02:01:23;4.57;;;1.60;;
51358;SDS011;37448;51.588;7.248;2022-12-20T02:03:24;4.57;;;1.80;;
51358;SDS011;37448;51.588;7.248;2022-12-20T02:05:25;8.90;;;2.40;;
51358;SDS011;37448;51.588;7.248;2022-12-20T02:07:26;3.88;;;1.50;;
51358;SDS011;37448;51.588;7.248;2022-12-20T02:09:30;4.70;;;1.60;;
51358;SDS011;37448;51.588;7.248;2022-12-20T02:16:25;3.53;;;1.73;;
51358;SDS011;37448;51.588;7.248;2022-12-20T02:18:28;5.43;;;1.80;;
51358;SDS011;37448;51.588;7.248;2022-12-20T02:22:45;4.50;;;2.05;;
51358;SDS011;37448;51.588;7.248;2022-12-20T02:25:04;4.93;;;2.00;;
51358;SDS011;37448;51.588;7.248;2022-12-20T02:32:14;5.78;;;2.08;;
51358;SDS011;37448;51.588;7.248;2022-12-20T02:34:20;6.50;;;2.30;;
51358;SDS011;37448;51.588;7.248;2022-12-20T02:36:26;4.78;;;1.85;;
51358;SDS011;37448;51.588;7.248;2022-12-20T02:40:29;4.82;;;1.80;;
51358;SDS011;37448;51.588;7.248;2022-12-20T02:42:33;4.10;;;1.92;;
51358;SDS011;37448;51.588;7.248;2022-12-20T02:44:35;3.55;;;1.77;;
51358;SDS011;37448;51.588;7.248;2022-12-20T02:46:59;4.97;;;2.03;;
51358;SDS011;37448;51.588;7.248;2022-12-20T02:49:06;6.85;;;2.30;;
51358;SDS011;37448;51.588;7.248;2022-12-20T02:51:12;6.78;;;2.08;;
51358;SDS011;37448;51.588;7.248;2022-12-20T02:53:15;4.13;;;1.90;;
51358;SDS011;37448;51.588;7.248;2022-12-20T02:55:18;6.35;;;2.10;;
51358;SDS011;37448;51.588;7.248;2022-12-20T02:57:46;6.28;;;2.10;;
51358;SDS011;37448;51.588;7.248;2022-12-20T02:59:54;9.73;;;2.38;;
51358;SDS011;37448;51.588;7.248;2022-12-20T03:02:03;5.72;;;2.38;;
51358;SDS011;37448;51.588;7.248;2022-12-20T03:04:05;5.95;;;2.40;;
51358;SDS011;37448;51.588;7.248;2022-12-20T03:06:07;4.47;;;1.83;;
51358;SDS011;37448;51.588;7.248;2022-12-20T03:08:08;4.28;;;1.90;;
51358;SDS011;37448;51.588;7.248;2022-12-20T03:10:09;4.25;;;2.25;;
51358;SDS011;37448;51.588;7.248;2022-12-20T03:12:10;7.03;;;2.10;;
51358;SDS011;37448;51.588;7.248;2022-12-20T03:14:11;5.95;;;2.40;;
51358;SDS011;37448;51.588;7.248;2022-12-20T03:16:12;6.28;;;2.17;;
51358;SDS011;37448;51.588;7.248;2022-12-20T03:18:12;4.00;;;1.92;;
51358;SDS011;37448;51.588;7.248;2022-12-20T03:20:13;6.93;;;2.58;;
51358;SDS011;37448;51.588;7.248;2022-12-20T03:22:13;7.28;;;2.58;;
51358;SDS011;37448;51.588;7.248;2022-12-20T03:24:14;4.80;;;2.28;;
51358;SDS011;37448;51.588;7.248;2022-12-20T03:26:15;6.78;;;2.72;;
51358;SDS011;37448;51.588;7.248;2022-12-20T03:28:20;6.20;;;2.70;;
51358;SDS011;37448;51.588;7.248;2022-12-20T03:30:20;6.78;;;2.50;;
51358;SDS011;37448;51.588;7.248;2022-12-20T03:32:21;5.82;;;2.50;;
51358;SDS011;37448;51.588;7.248;2022-12-20T03:34:22;8.25;;;2.80;;
51358;SDS011;37448;51.588;7.248;2022-12-20T03:36:22;5.55;;;2.33;;
51358;SDS011;37448;51.588;7.248;2022-12-20T03:38:27;4.82;;;2.17;;
51358;SDS011;37448;51.588;7.248;2022-12-20T03:40:27;5.35;;;2.55;;
51358;SDS011;37448;51.588;7.248;2022-12-20T03:42:28;6.00;;;2.60;;
51358;SDS011;37448;51.588;7.248;2022-12-20T03:44:29;6.82;;;2.90;;
51358;SDS011;37448;51.588;7.248;2022-12-20T03:46:29;5.90;;;2.40;;
51358;SDS011;37448;51.588;7.248;2022-12-20T03:48:30;7.28;;;2.70;;
51358;SDS011;37448;51.588;7.248;2022-12-20T03:50:31;6.90;;;2.50;;
51358;SDS011;37448;51.588;7.248;2022-12-20T03:52:34;10.02;;;2.90;;
51358;SDS011;37448;51.588;7.248;2022-12-20T03:54:34;7.38;;;2.80;;
51358;SDS011;37448;51.588;7.248;2022-12-20T03:56:47;7.57;;;2.60;;
51358;SDS011;37448;51.588;7.248;2022-12-20T03:58:47;9.10;;;2.70;;
51358;SDS011;37448;51.588;7.248;2022-12-20T04:00:49;6.22;;;2.60;;
51358;SDS011;37448;51.588;7.248;2022-12-20T04:03:08;5.15;;;2.50;;
51358;SDS011;37448;51.588;7.248;2022-12-20T04:05:09;7.90;;;3.22;;
51358;SDS011;37448;51.588;7.248;2022-12-20T04:07:10;8.30;;;2.57;;
51358;SDS011;37448;51.588;7.248;2022-12-20T04:09:13;6.32;;;2.70;;
51358;SDS011;37448;51.588;7.248;2022-12-20T04:11:20;6.25;;;2.75;;
51358;SDS011;37448;51.588;7.248;2022-12-20T04:13:26;7.88;;;2.92;;
51358;SDS011;37448;51.588;7.248;2022-12-20T04:15:26;7.53;;;2.85;;
51358;SDS011;37448;51.588;7.248;2022-12-20T04:17:27;7.38;;;2.67;;
51358;SDS011;37448;51.588;7.248;2022-12-20T04:19:27;4.95;;;2.47;;
51358;SDS011;37448;51.588;7.248;2022-12-20T04:21:28;7.57;;;2.97;;
51358;SDS011;37448;51.588;7.248;2022-12-20T04:23:32;8.00;;;2.88;;
51358;SDS011;37448;51.588;7.248;2022-12-20T04:25:34;5.65;;;2.72;;
51358;SDS011;37448;51.588;7.248;2022-12-20T04:27:34;6.95;;;2.88;;
51358;SDS011;37448;51.588;7.248;2022-12-20T04:29:39;9.02;;;3.22;;
51358;SDS011;37448;51.588;7.248;2022-12-20T04:31:42;5.68;;;2.58;;
51358;SDS011;37448;51.588;7.248;2022-12-20T04:33:43;5.88;;;3.10;;
51358;SDS011;37448;51.588;7.248;2022-12-20T04:35:45;7.00;;;3.17;;
51358;SDS011;37448;51.588;7.248;2022-12-20T04:37:46;6.25;;;2.80;;
51358;SDS011;37448;51.588;7.248;2022-12-20T04:39:49;8.40;;;3.38;;
51358;SDS011;37448;51.588;7.248;2022-12-20T04:41:55;8.60;;;3.00;;
51358;SDS011;37448;51.588;7.248;2022-12-20T04:43:56;7.43;;;3.00;;
51358;SDS011;37448;51.588;7.248;2022-12-20T04:46:02;6.72;;;3.08;;
51358;SDS011;37448;51.588;7.248;2022-12-20T04:48:02;8.63;;;3.35;;
51358;SDS011;37448;51.588;7.248;2022-12-20T04:50:09;6.95;;;3.00;;
51358;SDS011;37448;51.588;7.248;2022-12-20T04:52:10;5.88;;;2.83;;
51358;SDS011;37448;51.588;7.248;2022-12-20T04:54:29;7.13;;;3.30;;
51358;SDS011;37448;51.588;7.248;2022-12-20T04:56:35;6.32;;;2.92;;
51358;SDS011;37448;51.588;7.248;2022-12-20T04:58:42;8.93;;;3.13;;
51358;SDS011;37448;51.588;7.248;2022-12-20T05:00:43;8.68;;;3.47;;
51358;SDS011;37448;51.588;7.248;2022-12-20T05:02:55;6.25;;;3.28;;
51358;SDS011;37448;51.588;7.248;2022-12-20T05:04:58;5.32;;;2.88;;
51358;SDS011;37448;51.588;7.248;2022-12-20T05:06:58;7.38;;;3.83;;
51358;SDS011;37448;51.588;7.248;2022-12-20T05:08:59;9.98;;;3.38;;
51358;SDS011;37448;51.588;7.248;2022-12-20T05:10:59;8.18;;;3.38;;
51358;SDS011;37448;51.588;7.248;2022-12-20T05:13:00;7.80;;;3.72;;
51358;SDS011;37448;51.588;7.248;2022-12-20T05:15:08;8.65;;;3.15;;
51358;SDS011;37448;51.588;7.248;2022-12-20T05:17:09;8.73;;;3.63;;
51358;SDS011;37448;51.588;7.248;2022-12-20T05:19:09;11.60;;;3.85;;
51358;SDS011;37448;51.588;7.248;2022-12-20T05:21:13;7.40;;;3.63;;
51358;SDS011;37448;51.588;7.248;2022-12-20T05:23:32;6.28;;;3.40;;
51358;SDS011;37448;51.588;7.248;2022-12-20T05:25:56;7.35;;;3.17;;
51358;SDS011;37448;51.588;7.248;2022-12-20T05:28:15;7.18;;;3.33;;
51358;SDS011;37448;51.588;7.248;2022-12-20T05:30:15;12.60;;;3.72;;
51358;SDS011;37448;51.588;7.248;2022-12-20T05:32:17;8.55;;;3.40;;
51358;SDS011;37448;51.588;7.248;2022-12-20T05:34:17;7.35;;;3.50;;
51358;SDS011;37448;51.588;7.248;2022-12-20T05:36:23;7.65;;;3.30;;
51358;SDS011;37448;51.588;7.248;2022-12-20T05:38:24;8.20;;;3.72;;
51358;SDS011;37448;51.588;7.248;2022-12-20T05:40:24;8.20;;;3.70;;
51358;SDS011;37448;51.588;7.248;2022-12-20T05:42:25;9.25;;;3.80;;
51358;SDS011;37448;51.588;7.248;2022-12-20T05:44:26;7.50;;;3.20;;
51358;SDS011;37448;51.588;7.248;2022-12-20T05:46:30;8.98;;;3.83;;
51358;SDS011;37448;51.588;7.248;2022-12-20T05:48:35;6.60;;;3.20;;
51358;SDS011;37448;51.588;7.248;2022-12-20T05:50:35;8.15;;;3.45;;
51358;SDS011;37448;51.588;7.248;2022-12-20T05:52:54;9.63;;;3.47;;
51358;SDS011;37448;51.588;7.248;2022-12-20T05:54:55;7.38;;;3.35;;
51358;SDS011;37448;51.588;7.248;2022-12-20T05:56:58;7.60;;;2.97;;
51358;SDS011;37448;51.588;7.248;2022-12-20T05:59:06;9.57;;;3.47;;
51358;SDS011;37448;51.588;7.248;2022-12-20T06:01:09;7.35;;;3.20;;
51358;SDS011;37448;51.588;7.248;2022-12-20T06:03:11;10.05;;;3.75;;
51358;SDS011;37448;51.588;7.248;2022-12-20T06:07:14;5.90;;;3.22;;
51358;SDS011;37448;51.588;7.248;2022-12-20T06:11:23;9.52;;;3.42;;
51358;SDS011;37448;51.588;7.248;2022-12-20T06:13:30;8.43;;;3.42;;
51358;SDS011;37448;51.588;7.248;2022-12-20T06:15:31;8.57;;;3.80;;
51358;SDS011;37448;51.588;7.248;2022-12-20T06:17:33;12.25;;;4.35;;
51358;SDS011;37448;51.588;7.248;2022-12-20T06:19:34;8.80;;;3.63;;
51358;SDS011;37448;51.588;7.248;2022-12-20T06:21:35;9.27;;;3.15;;
51358;SDS011;37448;51.588;7.248;2022-12-20T06:23:36;5.80;;;3.10;;
51358;SDS011;37448;51.588;7.248;2022-12-20T06:25:40;6.18;;;3.20;;
51358;SDS011;37448;51.588;7.248;2022-12-20T06:27:41;8.65;;;3.38;;
51358;SDS011;37448;51.588;7.248;2022-12-20T06:29:46;8.35;;;3.83;;
51358;SDS011;37448;51.588;7.248;2022-12-20T06:31:52;6.50;;;3.25;;
51358;SDS011;37448;51.588;7.248;2022-12-20T06:33:52;9.10;;;3.85;;
51358;SDS011;37448;51.588;7.248;2022-12-20T06:35:55;6.75;;;3.28;;
51358;SDS011;37448;51.588;7.248;2022-12-20T06:37:56;7.30;;;3.45;;
51358;SDS011;37448;51.588;7.248;2022-12-20T06:39:57;7.35;;;3.42;;
51358;SDS011;37448;51.588;7.248;2022-12-20T06:41:57;6.88;;;3.15;;
51358;SDS011;37448;51.588;7.248;2022-12-20T06:43:58;6.55;;;2.92;;
51358;SDS011;37448;51.588;7.248;2022-12-20T06:45:59;6.75;;;2.90;;
51358;SDS011;37448;51.588;7.248;2022-12-20T06:47:59;8.73;;;2.90;;
51358;SDS011;37448;51.588;7.248;2022-12-20T06:52:03;6.35;;;2.70;;
51358;SDS011;37448;51.588;7.248;2022-12-20T06:54:18;7.53;;;3.00;;
51358;SDS011;37448;51.588;7.248;2022-12-20T06:56:18;10.50;;;3.45;;
51358;SDS011;37448;51.588;7.248;2022-12-20T06:58:19;7.57;;;2.53;;
51358;SDS011;37448;51.588;7.248;2022-12-20T07:02:22;8.80;;;2.97;;
51358;SDS011;37448;51.588;7.248;2022-12-20T07:04:22;6.68;;;3.00;;
51358;SDS011;37448;51.588;7.248;2022-12-20T07:06:23;8.57;;;3.00;;
51358;SDS011;37448;51.588;7.248;2022-12-20T07:08:23;6.32;;;2.90;;
51358;SDS011;37448;51.588;7.248;2022-12-20T07:10:24;6.20;;;2.67;;
51358;SDS011;37448;51.588;7.248;2022-12-20T07:12:24;5.65;;;2.50;;
51358;SDS011;37448;51.588;7.248;2022-12-20T07:14:25;6.78;;;3.15;;
51358;SDS011;37448;51.588;7.248;2022-12-20T07:16:25;6.50;;;2.55;;
51358;SDS011;37448;51.588;7.248;2022-12-20T07:18:25;6.15;;;2.50;;
51358;SDS011;37448;51.588;7.248;2022-12-20T07:20:26;5.70;;;2.58;;
51358;SDS011;37448;51.588;7.248;2022-12-20T07:22:26;6.78;;;2.70;;
51358;SDS011;37448;51.588;7.248;2022-12-20T07:24:27;6.45;;;2.88;;
51358;SDS011;37448;51.588;7.248;2022-12-20T07:26:27;5.53;;;2.88;;
51358;SDS011;37448;51.588;7.248;2022-12-20T07:28:28;6.03;;;2.72;;
51358;SDS011;37448;51.588;7.248;2022-12-20T07:30:28;6.68;;;2.90;;
51358;SDS011;37448;51.588;7.248;2022-12-20T07:32:30;8.85;;;3.22;;
51358;SDS011;37448;51.588;7.248;2022-12-20T07:34:31;7.85;;;2.95;;
51358;SDS011;37448;51.588;7.248;2022-12-20T07:36:31;15.85;;;3.83;;
51358;SDS011;37448;51.588;7.248;2022-12-20T07:38:32;5.65;;;2.92;;
51358;SDS011;37448;51.588;7.248;2022-12-20T07:42:34;6.78;;;2.50;;
51358;SDS011;37448;51.588;7.248;2022-12-20T07:44:35;6.20;;;2.50;;
51358;SDS011;37448;51.588;7.248;2022-12-20T07:46:35;5.25;;;2.60;;
51358;SDS011;37448;51.588;7.248;2022-12-20T07:48:35;5.40;;;2.58;;
51358;SDS011;37448;51.588;7.248;2022-12-20T07:50:36;6.35;;;3.05;;
51358;SDS011;37448;51.588;7.248;2022-12-20T07:52:37;6.82;;;2.47;;
51358;SDS011;37448;51.588;7.248;2022-12-20T07:56:46;6.43;;;2.78;;
51358;SDS011;37448;51.588;7.248;2022-12-20T07:58:50;6.78;;;2.70;;
51358;SDS011;37448;51.588;7.248;2022-12-20T08:00:55;7.25;;;2.83;;
51358;SDS011;37448;51.588;7.248;2022-12-20T08:03:07;5.97;;;2.50;;
51358;SDS011;37448;51.588;7.248;2022-12-20T08:05:14;6.55;;;2.33;;
51358;SDS011;37448;51.588;7.248;2022-12-20T08:07:16;6.97;;;2.55;;
51358;SDS011;37448;51.588;7.248;2022-12-20T08:09:17;10.13;;;3.00;;
51358;SDS011;37448;51.588;7.248;2022-12-20T08:11:18;6.28;;;2.60;;
51358;SDS011;37448;51.588;7.248;2022-12-20T08:13:21;5.05;;;2.30;;
51358;SDS011;37448;51.588;7.248;2022-12-20T08:15:22;5.07;;;2.28;;
51358;SDS011;37448;51.588;7.248;2022-12-20T08:17:23;7.20;;;2.17;;
51358;SDS011;37448;51.588;7.248;2022-12-20T08:19:23;3.75;;;1.80;;
51358;SDS011;37448;51.588;7.248;2022-12-20T08:21:23;7.20;;;2.88;;
51358;SDS011;37448;51.588;7.248;2022-12-20T08:23:24;5.45;;;2.38;;
51358;SDS011;37448;51.588;7.248;2022-12-20T08:25:24;6.47;;;2.53;;
51358;SDS011;37448;51.588;7.248;2022-12-20T08:27:24;6.70;;;2.35;;
51358;SDS011;37448;51.588;7.248;2022-12-20T08:29:25;5.00;;;2.30;;
51358;SDS011;37448;51.588;7.248;2022-12-20T08:31:25;7.15;;;2.30;;
51358;SDS011;37448;51.588;7.248;2022-12-20T08:33:26;4.88;;;2.08;;
51358;SDS011;37448;51.588;7.248;2022-12-20T08:35:26;6.45;;;2.70;;
51358;SDS011;37448;51.588;7.248;2022-12-20T08:37:26;4.47;;;2.13;;
51358;SDS011;37448;51.588;7.248;2022-12-20T08:39:27;5.25;;;2.58;;
51358;SDS011;37448;51.588;7.248;2022-12-20T08:41:27;7.15;;;2.70;;
51358;SDS011;37448;51.588;7.248;2022-12-20T08:43:28;7.00;;;2.35;;
51358;SDS011;37448;51.588;7.248;2022-12-20T08:45:28;5.85;;;2.72;;
51358;SDS011;37448;51.588;7.248;2022-12-20T08:47:28;5.35;;;2.03;;
51358;SDS011;37448;51.588;7.248;2022-12-20T08:49:29;4.85;;;2.55;;
51358;SDS011;37448;51.588;7.248;2022-12-20T08:51:30;5.90;;;1.98;;
51358;SDS011;37448;51.588;7.248;2022-12-20T08:53:31;4.70;;;2.38;;
51358;SDS011;37448;51.588;7.248;2022-12-20T08:55:32;6.30;;;2.38;;
51358;SDS011;37448;51.588;7.248;2022-12-20T08:57:32;6.55;;;2.35;;
51358;SDS011;37448;51.588;7.248;2022-12-20T08:59:32;4.95;;;2.58;;
51358;SDS011;37448;51.588;7.248;2022-12-20T09:01:33;8.73;;;2.80;;
51358;SDS011;37448;51.588;7.248;2022-12-20T09:03:34;5.90;;;2.22;;
51358;SDS011;37448;51.588;7.248;2022-12-20T09:05:35;6.97;;;2.30;;
51358;SDS011;37448;51.588;7.248;2022-12-20T09:07:42;4.45;;;2.30;;
51358;SDS011;37448;51.588;7.248;2022-12-20T09:09:42;5.32;;;2.15;;
51358;SDS011;37448;51.588;7.248;2022-12-20T09:11:42;4.93;;;1.95;;
51358;SDS011;37448;51.588;7.248;2022-12-20T09:13:43;5.30;;;1.92;;
51358;SDS011;37448;51.588;7.248;2022-12-20T09:15:45;6.13;;;2.13;;
51358;SDS011;37448;51.588;7.248;2022-12-20T09:17:45;8.68;;;2.17;;
51358;SDS011;37448;51.588;7.248;2022-12-20T09:19:46;5.93;;;2.00;;
51358;SDS011;37448;51.588;7.248;2022-12-20T09:21:47;4.22;;;1.52;;
51358;SDS011;37448;51.588;7.248;2022-12-20T09:23:51;5.97;;;1.77;;
51358;SDS011;37448;51.588;7.248;2022-12-20T09:25:52;6.43;;;2.05;;
51358;SDS011;37448;51.588;7.248;2022-12-20T09:27:53;3.38;;;1.73;;
51358;SDS011;37448;51.588;7.248;2022-12-20T09:29:55;4.90;;;1.80;;
51358;SDS011;37448;51.588;7.248;2022-12-20T09:31:55;3.65;;;1.58;;
51358;SDS011;37448;51.588;7.248;2022-12-20T09:33:56;4.70;;;1.95;;
51358;SDS011;37448;51.588;7.248;2022-12-20T09:35:58;6.25;;;2.22;;
51358;SDS011;37448;51.588;7.248;2022-12-20T09:37:59;4.90;;;1.85;;
51358;SDS011;37448;51.588;7.248;2022-12-20T09:40:00;4.72;;;2.00;;
51358;SDS011;37448;51.588;7.248;2022-12-20T09:42:00;4.68;;;1.98;;
51358;SDS011;37448;51.588;7.248;2022-12-20T09:44:15;5.82;;;1.92;;
51358;SDS011;37448;51.588;7.248;2022-12-20T09:46:19;4.15;;;1.80;;
51358;SDS011;37448;51.588;7.248;2022-12-20T09:48:23;5.50;;;1.90;;
51358;SDS011;37448;51.588;7.248;2022-12-20T09:50:35;6.65;;;1.90;;
51358;SDS011;37448;51.588;7.248;2022-12-20T09:57:17;4.97;;;1.75;;
51358;SDS011;37448;51.588;7.248;2022-12-20T09:59:43;4.03;;;1.80;;
51358;SDS011;37448;51.588;7.248;2022-12-20T10:01:44;5.78;;;1.90;;
51358;SDS011;37448;51.588;7.248;2022-12-20T10:03:46;5.60;;;2.30;;
51358;SDS011;37448;51.588;7.248;2022-12-20T10:05:50;5.13;;;2.63;;
51358;SDS011;37448;51.588;7.248;2022-12-20T10:08:08;5.22;;;1.95;;
51358;SDS011;37448;51.588;7.248;2022-12-20T10:15:18;8.65;;;1.85;;
51358;SDS011;37448;51.588;7.248;2022-12-20T10:19:52;4.55;;;2.55;;
51358;SDS011;37448;51.588;7.248;2022-12-20T10:24:35;7.70;;;2.15;;
51358;SDS011;37448;51.588;7.248;2022-12-20T10:26:31;4.78;;;2.10;;
51358;SDS011;37448;51.588;7.248;2022-12-20T10:30:34;6.93;;;1.95;;
51358;SDS011;37448;51.588;7.248;2022-12-20T10:32:34;5.95;;;2.40;;
51358;SDS011;37448;51.588;7.248;2022-12-20T10:34:34;7.47;;;2.10;;
51358;SDS011;37448;51.588;7.248;2022-12-20T10:36:35;7.80;;;2.13;;
51358;SDS011;37448;51.588;7.248;2022-12-20T10:38:43;3.55;;;1.90;;
51358;SDS011;37448;51.588;7.248;2022-12-20T10:40:59;6.78;;;2.50;;
51358;SDS011;37448;51.588;7.248;2022-12-20T10:43:04;6.05;;;1.98;;
51358;SDS011;37448;51.588;7.248;2022-12-20T10:45:24;4.53;;;1.90;;
51358;SDS011;37448;51.588;7.248;2022-12-20T10:47:37;5.15;;;2.03;;
51358;SDS011;37448;51.588;7.248;2022-12-20T10:49:42;5.65;;;1.73;;
51358;SDS011;37448;51.588;7.248;2022-12-20T10:51:49;7.82;;;2.00;;
51358;SDS011;37448;51.588;7.248;2022-12-20T10:56:04;5.68;;;2.00;;
51358;SDS011;37448;51.588;7.248;2022-12-20T10:58:14;5.35;;;1.90;;
51358;SDS011;37448;51.588;7.248;2022-12-20T11:00:26;6.20;;;1.75;;
51358;SDS011;37448;51.588;7.248;2022-12-20T11:04:30;6.78;;;2.00;;
51358;SDS011;37448;51.588;7.248;2022-12-20T11:08:36;4.70;;;1.88;;
51358;SDS011;37448;51.588;7.248;2022-12-20T11:10:36;5.35;;;2.20;;
51358;SDS011;37448;51.588;7.248;2022-12-20T11:12:36;5.30;;;2.22;;
51358;SDS011;37448;51.588;7.248;2022-12-20T11:15:09;5.10;;;1.88;;
51358;SDS011;37448;51.588;7.248;2022-12-20T11:17:28;8.02;;;2.10;;
51358;SDS011;37448;51.588;7.248;2022-12-20T11:21:59;4.13;;;1.73;;
51358;SDS011;37448;51.588;7.248;2022-12-20T11:24:09;3.60;;;1.80;;
51358;SDS011;37448;51.588;7.248;2022-12-20T11:29:00;5.18;;;1.83;;
51358;SDS011;37448;51.588;7.248;2022-12-20T11:31:20;5.50;;;1.85;;
51358;SDS011;37448;51.588;7.248;2022-12-20T11:36:55;7.05;;;2.10;;
51358;SDS011;37448;51.588;7.248;2022-12-20T11:41:12;4.88;;;1.80;;
51358;SDS011;37448;51.588;7.248;2022-12-20T11:52:04;5.57;;;1.80;;
51358;SDS011;37448;51.588;7.248;2022-12-20T11:54:10;4.97;;;2.10;;
51358;SDS011;37448;51.588;7.248;2022-12-20T11:58:45;3.47;;;1.70;;
51358;SDS011;37448;51.588;7.248;2022-12-20T12:00:52;5.63;;;2.38;;
51358;SDS011;37448;51.588;7.248;2022-12-20T12:03:02;3.78;;;1.70;;
51358;SDS011;37448;51.588;7.248;2022-12-20T12:05:16;5.65;;;1.88;;
51358;SDS011;37448;51.588;7.248;2022-12-20T12:07:20;5.80;;;1.73;;
51358;SDS011;37448;51.588;7.248;2022-12-20T12:09:34;4.30;;;1.70;;
51358;SDS011;37448;51.588;7.248;2022-12-20T12:11:40;3.38;;;1.60;;
51358;SDS011;37448;51.588;7.248;2022-12-20T12:13:46;4.75;;;1.90;;
51358;SDS011;37448;51.588;7.248;2022-12-20T12:20:00;4.00;;;1.90;;
51358;SDS011;37448;51.588;7.248;2022-12-20T12:24:44;5.43;;;1.92;;
51358;SDS011;37448;51.588;7.248;2022-12-20T12:26:51;6.10;;;1.90;;
51358;SDS011;37448;51.588;7.248;2022-12-20T12:28:53;5.53;;;1.70;;
51358;SDS011;37448;51.588;7.248;2022-12-20T12:31:14;5.05;;;2.08;;
51358;SDS011;37448;51.588;7.248;2022-12-20T12:33:41;4.40;;;1.88;;
51358;SDS011;37448;51.588;7.248;2022-12-20T12:38:27;5.25;;;2.05;;
51358;SDS011;37448;51.588;7.248;2022-12-20T12:45:30;5.07;;;2.00;;
51358;SDS011;37448;51.588;7.248;2022-12-20T12:47:40;4.18;;;1.60;;
51358;SDS011;37448;51.588;7.248;2022-12-20T12:49:49;3.15;;;1.50;;
51358;SDS011;37448;51.588;7.248;2022-12-20T12:51:53;5.82;;;1.90;;
51358;SDS011;37448;51.588;7.248;2022-12-20T12:54:12;7.20;;;1.88;;
51358;SDS011;37448;51.588;7.248;2022-12-20T12:58:30;5.40;;;2.05;;
51358;SDS011;37448;51.588;7.248;2022-12-20T13:00:51;5.35;;;1.88;;
51358;SDS011;37448;51.588;7.248;2022-12-20T13:02:53;6.65;;;2.05;;
51358;SDS011;37448;51.588;7.248;2022-12-20T13:10:58;4.13;;;1.60;;
51358;SDS011;37448;51.588;7.248;2022-12-20T13:15:47;4.57;;;1.90;;
51358;SDS011;37448;51.588;7.248;2022-12-20T13:21:30;3.85;;;1.60;;
51358;SDS011;37448;51.588;7.248;2022-12-20T13:23:34;4.30;;;1.75;;
51358;SDS011;37448;51.588;7.248;2022-12-20T13:25:36;4.55;;;1.83;;
51358;SDS011;37448;51.588;7.248;2022-12-20T13:27:40;7.03;;;2.67;;
51358;SDS011;37448;51.588;7.248;2022-12-20T13:29:51;5.22;;;1.83;;
51358;SDS011;37448;51.588;7.248;2022-12-20T13:31:55;6.03;;;2.15;;
51358;SDS011;37448;51.588;7.248;2022-12-20T13:33:58;5.20;;;1.95;;
51358;SDS011;37448;51.588;7.248;2022-12-20T13:36:02;4.60;;;2.20;;
51358;SDS011;37448;51.588;7.248;2022-12-20T13:40:18;9.52;;;3.33;;
51358;SDS011;37448;51.588;7.248;2022-12-20T13:42:27;9.48;;;2.88;;
51358;SDS011;37448;51.588;7.248;2022-12-20T13:44:35;5.20;;;2.57;;
51358;SDS011;37448;51.588;7.248;2022-12-20T13:48:49;10.30;;;3.90;;
51358;SDS011;37448;51.588;7.248;2022-12-20T13:50:55;6.10;;;2.88;;
51358;SDS011;37448;51.588;7.248;2022-12-20T13:52:56;8.63;;;3.20;;
51358;SDS011;37448;51.588;7.248;2022-12-20T13:54:58;7.00;;;2.90;;
51358;SDS011;37448;51.588;7.248;2022-12-20T13:57:04;8.75;;;3.30;;
51358;SDS011;37448;51.588;7.248;2022-12-20T13:59:29;7.68;;;3.58;;
51358;SDS011;37448;51.588;7.248;2022-12-20T14:01:27;10.25;;;4.00;;
51358;SDS011;37448;51.588;7.248;2022-12-20T14:03:28;11.25;;;4.00;;
51358;SDS011;37448;51.588;7.248;2022-12-20T14:05:30;11.90;;;4.20;;
51358;SDS011;37448;51.588;7.248;2022-12-20T14:07:33;8.05;;;3.67;;
51358;SDS011;37448;51.588;7.248;2022-12-20T14:09:34;9.00;;;3.97;;
51358;SDS011;37448;51.588;7.248;2022-12-20T14:11:38;11.38;;;4.25;;
51358;SDS011;37448;51.588;7.248;2022-12-20T14:13:53;10.32;;;4.45;;